Accueil
METAR-TAF:

METAR-TAF

Aéroports :

Aéroport international Juanda

Gerbangkertosusila, Indonésie

latitude: 07-22-47S, longitude: 112-47-13E, altitude: 3 m

Observation

Le bulletin a été fait il y a 46 minutes, à 12:30 UTC
Vent 12 kt de est
Température 28°C
Humidité 74%
Pression 1009 hPa
Visibilité: 8000 m
Quelques nuages à une hauteur de 2000 ft

METAR: WARR 201230Z 08012KT 8000 FEW020 28/23 Q1009 NOSIG

Heure: 20:16 (13:16 UTC)

Prévision

Le bulletin a été fait il y a 2 heures et 16 minutes, à 11:00 UTC
Prévision valable du 20 à 12 UTC au 21 à 12 UTC
Vent 9 kt de est/sud-est
Visibilité: 8000 m
Quelques nuages à une hauteur de 2000 ft
Evoluant progressivement
du 20 à 21 UTC au 20 à 23 UTC
Vent 4 kt de ouest/sud-ouest
Visibilité: 4000 m
brume sèche
Evoluant progressivement
du 21 à 00 UTC au 21 à 02 UTC
Visibilité 10 km ou plus

TAF: WARR 201100Z 2012/2112 11009KT 8000 FEW020 BECMG 2021/2023 25004KT 4000 HZ BECMG 2100/2102 9999 NSW

Observations et prévisions météorologiques de plus de 4000 aéroports (messages METAR et TAF).

Les stations disponibles sont représentées par des disques jaunes et rouges sur la carte.

Passer la souris dessus pour voir le nom de la station.

Cliquer dessus pour voir les observations et prévisions météorologiques.

Pour changer de carte: cliquez sur les boutons verts avec une croix noire pour zoomer, sur le bouton vert avec un tiret pour effectuer un zoom arrière, ou sur les flèches vertes pour les cartes adjacentes.


METAR-TAF: